createdAt,value
2022-12-29T00:01:45.828Z,75.83
2022-12-29T00:04:15.629Z,74.90
2022-12-29T00:06:44.303Z,74.67
2022-12-29T00:09:14.255Z,75.20
2022-12-29T00:11:41.069Z,75.48
2022-12-29T00:14:29.152Z,75.28
2022-12-29T00:16:55.816Z,74.84
2022-12-29T00:19:42.498Z,75.11
2022-12-29T00:22:31.973Z,74.99
2022-12-29T00:28:07.297Z,75.35
2022-12-29T00:30:54.856Z,75.05
2022-12-29T00:33:42.900Z,74.61
2022-12-29T00:36:17.558Z,74.70
2022-12-29T00:39:10.991Z,74.65
2022-12-29T00:41:57.540Z,74.63
2022-12-29T00:44:25.140Z,74.63
2022-12-29T00:46:51.942Z,74.77
2022-12-29T00:49:34.400Z,75.00
2022-12-29T00:52:06.716Z,74.17
2022-12-29T00:54:36.269Z,75.25
2022-12-29T00:57:04.224Z,74.67
2022-12-29T00:59:30.951Z,74.72
2022-12-29T01:01:58.142Z,75.30
2022-12-29T01:04:26.912Z,74.58
2022-12-29T01:06:53.830Z,75.23
2022-12-29T01:09:40.761Z,74.80
2022-12-29T01:12:08.933Z,75.47
2022-12-29T01:14:35.679Z,75.20
2022-12-29T01:17:02.262Z,74.90
2022-12-29T01:19:28.908Z,75.00
2022-12-29T01:21:55.444Z,74.69
2022-12-29T01:24:22.515Z,74.45
2022-12-29T01:26:50.113Z,74.99
2022-12-29T01:29:17.478Z,74.45
2022-12-29T01:31:44.930Z,75.10
2022-12-29T01:34:11.737Z,74.22
2022-12-29T01:36:38.334Z,74.61
2022-12-29T01:39:04.871Z,74.41
2022-12-29T01:41:32.541Z,74.42
2022-12-29T01:44:02.071Z,73.96
2022-12-29T01:49:16.226Z,73.86
2022-12-29T01:51:59.138Z,73.98
2022-12-29T01:54:39.695Z,73.88
2022-12-29T01:57:11.505Z,74.29
2022-12-29T01:59:44.554Z,73.92
2022-12-29T02:02:11.772Z,74.28
2022-12-29T02:04:45.272Z,74.35
2022-12-29T02:07:21.791Z,73.84
2022-12-29T02:09:51.756Z,73.98
2022-12-29T02:12:21.019Z,73.72
2022-12-29T02:14:49.903Z,73.36
2022-12-29T02:17:39.241Z,73.46
2022-12-29T02:23:10.425Z,73.17
2022-12-29T02:34:01.468Z,75.53
2022-12-29T02:36:46.023Z,75.00
2022-12-29T02:39:23.488Z,76.19
2022-12-29T02:42:29.870Z,75.36
2022-12-29T02:45:04.418Z,76.01
2022-12-29T02:52:54.060Z,75.43
2022-12-29T02:55:20.700Z,75.84
2022-12-29T02:57:47.303Z,76.64
2022-12-29T03:00:17.132Z,76.65
2022-12-29T03:03:04.372Z,76.73
2022-12-29T03:19:15.865Z,77.29
2022-12-29T03:24:22.742Z,78.05
2022-12-29T03:26:53.851Z,77.65
2022-12-29T03:29:21.728Z,78.02
2022-12-29T03:31:50.907Z,78.09
2022-12-29T03:34:21.414Z,78.35
2022-12-29T03:36:54.262Z,78.83
2022-12-29T03:39:24.776Z,77.32
2022-12-29T03:41:57.654Z,77.89
2022-12-29T03:44:33.962Z,78.10
2022-12-29T03:47:00.531Z,78.52
2022-12-29T03:49:27.071Z,78.96
2022-12-29T03:51:53.608Z,78.73
2022-12-29T03:54:20.267Z,78.18
2022-12-29T03:56:46.815Z,79.34
2022-12-29T03:59:13.383Z,78.41
2022-12-29T04:01:40.025Z,79.26
2022-12-29T04:04:06.675Z,78.68
2022-12-29T04:06:33.244Z,79.28
2022-12-29T04:09:00.153Z,79.65
2022-12-29T04:11:32.657Z,79.18
2022-12-29T04:13:59.739Z,78.88
2022-12-29T04:16:26.284Z,79.54
2022-12-29T04:18:52.902Z,79.01
2022-12-29T04:21:19.470Z,79.42
2022-12-29T04:23:46.050Z,79.26
2022-12-29T04:26:12.872Z,78.90
2022-12-29T04:28:39.675Z,78.07
2022-12-29T04:31:06.748Z,78.44
2022-12-29T04:33:34.087Z,78.65
2022-12-29T04:36:00.741Z,78.04
2022-12-29T04:38:27.451Z,78.55
2022-12-29T04:40:54.200Z,78.07
2022-12-29T04:43:20.885Z,77.13
2022-12-29T04:45:47.813Z,78.59
2022-12-29T04:48:15.487Z,78.48
2022-12-29T04:50:42.417Z,77.06
2022-12-29T04:53:09.206Z,77.96
2022-12-29T04:55:35.887Z,78.16
2022-12-29T04:58:02.485Z,76.75
2022-12-29T05:00:29.082Z,77.80
2022-12-29T05:02:55.757Z,77.10
2022-12-29T05:05:22.505Z,76.65
2022-12-29T05:07:49.143Z,77.18
2022-12-29T05:10:15.742Z,77.81
2022-12-29T05:12:42.345Z,77.23
2022-12-29T05:15:11.317Z,76.86
2022-12-29T05:17:38.047Z,77.27
2022-12-29T05:20:06.412Z,77.46
2022-12-29T05:22:32.960Z,77.67
2022-12-29T05:24:59.640Z,78.09
2022-12-29T05:27:26.439Z,78.18
2022-12-29T05:29:53.613Z,76.76
2022-12-29T05:32:20.335Z,77.57
2022-12-29T05:34:46.928Z,77.36
2022-12-29T05:37:13.573Z,77.77
2022-12-29T05:39:40.806Z,76.88
2022-12-29T05:42:07.337Z,77.67
2022-12-29T05:44:34.285Z,76.90
2022-12-29T05:47:01.123Z,77.91
2022-12-29T05:49:27.745Z,78.60
2022-12-29T05:51:54.309Z,77.98
2022-12-29T05:54:20.866Z,77.18
2022-12-29T05:56:47.426Z,77.77
2022-12-29T05:59:14.010Z,78.67
2022-12-29T06:01:40.813Z,77.48
2022-12-29T06:04:07.500Z,78.78
2022-12-29T06:06:34.076Z,77.94
2022-12-29T06:09:00.691Z,78.40
2022-12-29T06:11:27.257Z,78.39
2022-12-29T06:13:53.797Z,78.32
2022-12-29T06:16:20.657Z,78.17
2022-12-29T06:18:47.327Z,77.21
2022-12-29T06:21:13.943Z,77.59
2022-12-29T06:23:40.874Z,77.34
2022-12-29T06:26:07.417Z,78.23
2022-12-29T06:28:33.979Z,77.47
2022-12-29T06:31:00.872Z,78.84
2022-12-29T06:33:27.445Z,79.00
2022-12-29T06:35:53.980Z,78.68
2022-12-29T06:38:20.520Z,78.88
2022-12-29T06:40:47.107Z,77.93
2022-12-29T06:43:13.688Z,79.11
2022-12-29T06:45:41.794Z,79.04
2022-12-29T06:48:08.892Z,77.69
2022-12-29T06:50:36.017Z,77.73
2022-12-29T06:53:02.643Z,78.16
2022-12-29T06:55:29.307Z,78.56
2022-12-29T06:57:57.736Z,78.76
2022-12-29T07:00:25.195Z,78.11
2022-12-29T07:02:52.293Z,77.90
2022-12-29T07:05:19.216Z,78.54
2022-12-29T07:07:45.772Z,78.87
2022-12-29T07:10:12.401Z,78.13
2022-12-29T07:12:38.940Z,78.84
2022-12-29T07:15:05.916Z,77.89
2022-12-29T07:17:32.536Z,78.04
2022-12-29T07:19:59.075Z,78.13
2022-12-29T07:22:25.642Z,78.74
2022-12-29T07:24:52.213Z,78.44
2022-12-29T07:27:18.778Z,77.83
2022-12-29T07:29:45.483Z,78.26
2022-12-29T07:32:12.071Z,77.86
2022-12-29T07:34:40.501Z,77.96
2022-12-29T07:37:07.148Z,77.92
2022-12-29T07:39:33.820Z,78.24
2022-12-29T07:42:04.843Z,78.11
2022-12-29T07:44:31.769Z,77.79
2022-12-29T07:46:58.995Z,78.54
2022-12-29T07:49:26.063Z,77.49
2022-12-29T07:51:52.908Z,76.87
2022-12-29T07:54:19.576Z,78.14
2022-12-29T07:56:46.509Z,78.02
2022-12-29T07:59:13.205Z,77.55
2022-12-29T08:01:40.263Z,77.96
2022-12-29T08:04:07.093Z,77.17
2022-12-29T08:06:33.741Z,77.57
2022-12-29T08:09:11.153Z,77.60
2022-12-29T08:11:39.491Z,76.67
2022-12-29T08:14:06.161Z,77.25
2022-12-29T08:16:33.568Z,78.05
2022-12-29T08:19:00.263Z,77.63
2022-12-29T08:21:28.661Z,77.64
2022-12-29T08:23:55.356Z,77.58
2022-12-29T08:26:21.997Z,78.43
2022-12-29T08:28:48.574Z,78.08
2022-12-29T08:31:15.322Z,76.94
2022-12-29T08:33:41.956Z,76.63
2022-12-29T08:36:09.324Z,77.32
2022-12-29T08:38:35.870Z,77.85
2022-12-29T08:41:02.468Z,77.72
2022-12-29T08:43:29.383Z,76.45
2022-12-29T08:45:57.152Z,76.21
2022-12-29T08:48:23.926Z,75.73
2022-12-29T08:50:51.384Z,74.50
2022-12-29T08:53:18.975Z,73.98
2022-12-29T08:55:47.587Z,73.52
2022-12-29T08:58:15.696Z,72.88
2022-12-29T09:00:43.581Z,73.08
2022-12-29T09:03:10.551Z,72.53
2022-12-29T09:05:37.907Z,71.78
2022-12-29T09:08:05.412Z,72.92
2022-12-29T09:10:32.441Z,72.64
2022-12-29T09:12:59.112Z,71.79
2022-12-29T09:15:25.659Z,72.64
2022-12-29T09:17:52.232Z,72.74
2022-12-29T09:20:20.798Z,73.28
2022-12-29T09:22:48.191Z,73.17
2022-12-29T09:25:15.127Z,73.07
2022-12-29T09:27:41.740Z,73.18
2022-12-29T09:30:11.715Z,72.73
2022-12-29T09:32:44.629Z,72.45
2022-12-29T09:35:11.894Z,72.50
2022-12-29T09:37:38.470Z,73.21
2022-12-29T09:40:06.097Z,73.44
2022-12-29T09:42:40.217Z,72.66
2022-12-29T09:47:47.287Z,72.34
2022-12-29T09:55:40.318Z,66.63
2022-12-29T09:58:14.872Z,67.68
2022-12-29T10:03:41.766Z,65.11
2022-12-29T10:12:25.050Z,61.32
2022-12-29T10:25:32.972Z,56.42
2022-12-29T10:28:06.270Z,54.77
2022-12-29T10:30:35.714Z,54.94
2022-12-29T10:33:07.308Z,54.50
2022-12-29T10:35:38.338Z,54.16
2022-12-29T10:46:09.606Z,52.78
2022-12-29T10:48:36.614Z,51.94
2022-12-29T10:51:06.627Z,52.85
2022-12-29T10:56:26.764Z,54.90
2022-12-29T10:58:58.010Z,56.09
2022-12-29T11:01:36.090Z,55.44
2022-12-29T11:04:30.572Z,55.68
2022-12-29T11:06:58.756Z,57.34
2022-12-29T11:09:41.966Z,57.70
2022-12-29T11:12:28.745Z,58.18
2022-12-29T11:17:50.280Z,60.48
2022-12-29T11:20:38.450Z,60.13
2022-12-29T11:23:22.118Z,60.06
2022-12-29T11:26:07.862Z,59.83
2022-12-29T11:28:35.061Z,60.26
2022-12-29T11:31:03.571Z,61.62
2022-12-29T11:33:31.445Z,60.40
2022-12-29T11:36:02.716Z,61.73
2022-12-29T11:38:40.323Z,61.92
2022-12-29T11:41:11.036Z,62.88
2022-12-29T11:43:42.058Z,63.10
2022-12-29T11:46:17.938Z,62.20
2022-12-29T11:48:45.176Z,62.40
2022-12-29T11:51:12.641Z,62.10
2022-12-29T11:56:17.780Z,62.90
2022-12-29T11:58:45.188Z,63.53
2022-12-29T12:01:20.937Z,62.71
2022-12-29T12:04:00.591Z,62.97
2022-12-29T12:06:29.724Z,63.54
2022-12-29T12:09:11.452Z,63.41
2022-12-29T12:11:44.299Z,63.30
2022-12-29T12:14:35.478Z,63.67
2022-12-29T12:17:13.410Z,63.80
2022-12-29T12:19:47.912Z,63.72
2022-12-29T12:22:22.517Z,64.49
2022-12-29T12:24:57.071Z,64.15
2022-12-29T12:30:10.751Z,64.08
2022-12-29T12:35:21.578Z,64.40
2022-12-29T12:38:00.152Z,64.52
2022-12-29T12:51:48.794Z,65.36
2022-12-29T12:54:35.471Z,65.30
2022-12-29T12:59:53.746Z,65.75
2022-12-29T13:30:24.385Z,65.79
2022-12-29T13:38:34.792Z,65.90
2022-12-29T13:41:08.925Z,66.33
2022-12-29T13:43:38.866Z,66.14
2022-12-29T13:46:13.989Z,66.06
2022-12-29T13:51:27.656Z,66.29
2022-12-29T13:54:06.442Z,66.22
2022-12-29T14:02:05.659Z,66.01
2022-12-29T14:04:36.043Z,66.30
2022-12-29T14:07:07.190Z,66.27
2022-12-29T14:12:28.515Z,65.82
2022-12-29T14:14:55.267Z,65.41
2022-12-29T14:17:22.543Z,65.76
2022-12-29T14:19:55.324Z,65.89
2022-12-29T14:22:33.047Z,66.12
2022-12-29T14:25:01.387Z,66.11
2022-12-29T14:30:05.303Z,66.15
2022-12-29T14:35:44.243Z,65.67
2022-12-29T14:38:22.127Z,66.54
2022-12-29T14:40:49.660Z,66.57
2022-12-29T14:43:24.117Z,66.37
2022-12-29T14:46:02.183Z,66.42
2022-12-29T14:48:40.928Z,66.21
2022-12-29T14:51:28.752Z,67.06
2022-12-29T14:53:55.489Z,67.17
2022-12-29T14:56:28.478Z,66.86
2022-12-29T14:59:05.148Z,66.83
2022-12-29T15:01:54.293Z,66.84
2022-12-29T15:04:24.028Z,66.65
2022-12-29T15:06:51.774Z,67.04
2022-12-29T15:09:50.516Z,67.50
2022-12-29T15:14:56.046Z,67.24
2022-12-29T15:20:18.371Z,68.20
2022-12-29T15:22:50.361Z,67.99
2022-12-29T15:25:19.018Z,68.93
2022-12-29T15:28:03.764Z,68.71
2022-12-29T15:30:30.555Z,68.72
2022-12-29T15:32:57.404Z,69.50
2022-12-29T15:35:28.385Z,69.68
2022-12-29T15:37:55.924Z,69.79
2022-12-29T15:40:25.532Z,69.13
2022-12-29T15:45:39.988Z,69.77
2022-12-29T15:48:19.401Z,69.07
2022-12-29T15:50:47.100Z,69.68
2022-12-29T15:53:29.612Z,70.53
2022-12-29T15:56:03.848Z,70.16
2022-12-29T15:58:32.068Z,71.12
2022-12-29T16:01:01.311Z,70.62
2022-12-29T16:03:32.136Z,70.52
2022-12-29T16:06:11.605Z,69.89
2022-12-29T16:08:41.131Z,70.80
2022-12-29T16:13:59.274Z,70.13
2022-12-29T16:16:31.437Z,71.14
2022-12-29T16:18:59.091Z,71.39
2022-12-29T16:21:34.615Z,70.67
2022-12-29T16:24:05.872Z,70.99
2022-12-29T16:26:32.742Z,71.22
2022-12-29T16:29:02.494Z,71.42
2022-12-29T16:31:50.357Z,70.64
2022-12-29T16:37:37.239Z,71.10
2022-12-29T16:42:58.639Z,70.92
2022-12-29T16:50:46.820Z,71.50
2022-12-29T16:53:33.171Z,71.33
2022-12-29T16:56:06.370Z,71.46
2022-12-29T16:58:34.498Z,71.09
2022-12-29T17:01:03.781Z,70.89
2022-12-29T17:03:39.251Z,70.74
2022-12-29T17:06:06.389Z,71.44
2022-12-29T17:08:42.772Z,71.07
2022-12-29T17:11:42.201Z,71.27
2022-12-29T17:14:38.228Z,72.26
2022-12-29T17:17:11.467Z,71.09
2022-12-29T17:19:39.184Z,71.13
2022-12-29T17:22:13.259Z,71.57
2022-12-29T17:24:40.102Z,71.86
2022-12-29T17:27:06.873Z,71.55
2022-12-29T17:29:38.247Z,72.62
2022-12-29T17:32:07.753Z,72.87
2022-12-29T17:34:34.841Z,71.39
2022-12-29T17:37:01.707Z,72.65
2022-12-29T17:39:29.021Z,72.48
2022-12-29T17:41:55.933Z,72.72
2022-12-29T17:44:24.762Z,72.33
2022-12-29T17:46:51.792Z,72.77
2022-12-29T17:49:19.125Z,72.95
2022-12-29T17:51:47.450Z,73.04
2022-12-29T17:54:24.390Z,71.94
2022-12-29T17:56:51.218Z,72.38
2022-12-29T17:59:19.211Z,72.15
2022-12-29T18:01:47.627Z,72.40
2022-12-29T18:04:16.820Z,72.61
2022-12-29T18:06:44.516Z,73.41
2022-12-29T18:09:11.198Z,72.40
2022-12-29T18:11:41.015Z,73.18
2022-12-29T18:14:17.026Z,72.74
2022-12-29T18:16:44.292Z,73.37
2022-12-29T18:19:11.154Z,72.47
2022-12-29T18:21:39.939Z,72.49
2022-12-29T18:24:06.966Z,72.91
2022-12-29T18:26:35.895Z,72.47
2022-12-29T18:29:02.816Z,72.87
2022-12-29T18:31:32.119Z,73.02
2022-12-29T18:34:01.805Z,73.13
2022-12-29T18:36:29.157Z,72.77
2022-12-29T18:38:55.980Z,73.48
2022-12-29T18:41:25.015Z,73.41
2022-12-29T18:43:52.136Z,73.31
2022-12-29T18:46:22.649Z,73.55
2022-12-29T18:48:49.999Z,73.34
2022-12-29T18:51:19.320Z,72.71
2022-12-29T18:53:46.569Z,73.35
2022-12-29T18:56:13.801Z,73.07
2022-12-29T18:58:40.894Z,72.45
2022-12-29T19:01:18.550Z,72.64
2022-12-29T19:03:45.345Z,73.13
2022-12-29T19:06:11.994Z,72.68
2022-12-29T19:08:39.176Z,73.40
2022-12-29T19:11:06.416Z,73.22
2022-12-29T19:13:33.807Z,73.13
2022-12-29T19:16:00.638Z,72.88
2022-12-29T19:18:46.277Z,73.66
2022-12-29T19:21:15.130Z,73.82
2022-12-29T19:23:41.849Z,73.24
2022-12-29T19:26:27.342Z,72.90
2022-12-29T19:28:54.001Z,73.45
2022-12-29T19:31:20.611Z,73.34
2022-12-29T19:33:47.171Z,73.07
2022-12-29T19:36:16.496Z,73.10
2022-12-29T19:38:43.716Z,73.83
2022-12-29T19:41:10.318Z,73.57
2022-12-29T19:43:36.911Z,73.50
2022-12-29T19:46:09.223Z,73.75
2022-12-29T19:48:37.049Z,73.83
2022-12-29T19:51:07.718Z,73.22
2022-12-29T19:53:35.584Z,73.65
2022-12-29T19:56:05.734Z,73.34
2022-12-29T19:58:33.993Z,73.79
2022-12-29T20:01:06.579Z,73.54
2022-12-29T20:03:34.125Z,74.34
2022-12-29T20:06:00.719Z,74.01
2022-12-29T20:08:27.852Z,74.56
2022-12-29T20:11:05.681Z,74.68
2022-12-29T20:13:34.183Z,73.95
2022-12-29T20:16:04.705Z,74.89
2022-12-29T20:18:32.142Z,74.56
2022-12-29T20:21:04.398Z,74.71
2022-12-29T20:23:32.334Z,74.55
2022-12-29T20:26:00.419Z,74.20
2022-12-29T20:28:29.044Z,74.80
2022-12-29T20:30:58.009Z,75.02
2022-12-29T20:33:24.631Z,74.99
2022-12-29T20:35:51.674Z,75.45
2022-12-29T20:38:19.034Z,75.43
2022-12-29T20:40:47.059Z,76.81
2022-12-29T20:43:15.856Z,76.20
2022-12-29T20:45:42.540Z,75.63
2022-12-29T20:48:09.267Z,76.54
2022-12-29T20:50:35.834Z,76.58
2022-12-29T20:53:02.527Z,75.39
2022-12-29T20:55:29.163Z,76.10
2022-12-29T20:58:23.256Z,75.92
2022-12-29T21:00:42.483Z,76.03
2022-12-29T21:03:09.252Z,76.07
2022-12-29T21:05:38.159Z,76.43
2022-12-29T21:08:05.613Z,76.57
2022-12-29T21:10:32.524Z,76.30
2022-12-29T21:12:59.206Z,76.24
2022-12-29T21:15:25.872Z,76.52
2022-12-29T21:17:52.512Z,76.19
2022-12-29T21:20:29.761Z,77.00
2022-12-29T21:22:57.170Z,77.03
2022-12-29T21:25:24.118Z,76.96
2022-12-29T21:27:50.878Z,76.41
2022-12-29T21:30:18.086Z,76.98
2022-12-29T21:32:44.719Z,77.02
2022-12-29T21:35:11.270Z,76.98
2022-12-29T21:37:37.819Z,76.79
2022-12-29T21:40:05.791Z,76.64
2022-12-29T21:42:32.570Z,76.22
2022-12-29T21:45:21.115Z,76.44
2022-12-29T21:48:08.449Z,76.66
2022-12-29T21:51:04.333Z,77.38
2022-12-29T21:53:40.736Z,76.73
2022-12-29T21:56:23.135Z,77.01
2022-12-29T21:59:11.476Z,76.70
2022-12-29T22:01:58.877Z,77.20
2022-12-29T22:04:46.500Z,76.74
2022-12-29T22:07:33.373Z,76.91
2022-12-29T22:10:19.892Z,77.36
2022-12-29T22:13:03.229Z,77.88
2022-12-29T22:15:32.885Z,77.30
2022-12-29T22:18:00.902Z,77.28
2022-12-29T22:20:30.740Z,77.35
2022-12-29T22:22:57.465Z,77.37
2022-12-29T22:25:24.247Z,77.19
2022-12-29T22:27:55.760Z,77.38
2022-12-29T22:30:26.402Z,77.14
2022-12-29T22:32:52.986Z,77.71
2022-12-29T22:35:19.667Z,77.60
2022-12-29T22:37:46.268Z,77.73
2022-12-29T22:40:13.180Z,78.51
2022-12-29T22:42:39.891Z,78.70
2022-12-29T22:45:07.848Z,78.77
2022-12-29T22:47:34.709Z,78.53
2022-12-29T22:50:01.343Z,79.36
2022-12-29T22:52:28.018Z,78.91
2022-12-29T22:54:54.776Z,78.87
2022-12-29T22:57:21.880Z,79.33
2022-12-29T22:59:48.517Z,79.28
2022-12-29T23:02:15.295Z,79.19
2022-12-29T23:07:28.884Z,79.52
2022-12-29T23:09:55.575Z,79.45
2022-12-29T23:12:22.207Z,79.24
2022-12-29T23:14:48.777Z,78.98
2022-12-29T23:17:15.329Z,79.21
2022-12-29T23:19:41.996Z,79.47
2022-12-29T23:22:08.567Z,79.55
2022-12-29T23:24:35.200Z,79.83
2022-12-29T23:27:01.838Z,79.46
2022-12-29T23:29:28.563Z,79.25
2022-12-29T23:31:55.110Z,79.95
2022-12-29T23:34:21.985Z,80.02
2022-12-29T23:36:48.572Z,80.24
2022-12-29T23:39:20.190Z,80.31
2022-12-29T23:41:46.733Z,80.11
2022-12-29T23:44:13.298Z,79.32
2022-12-29T23:46:41.057Z,79.28
2022-12-29T23:49:09.871Z,79.75
2022-12-29T23:51:37.012Z,79.50
2022-12-29T23:54:04.395Z,79.61
2022-12-29T23:56:31.209Z,79.86
2022-12-29T23:58:57.851Z,79.51
